createdAt,value
2023-06-29T00:00:17.207Z,40.37
2023-06-29T00:02:45.556Z,40.45
2023-06-29T00:05:13.937Z,40.48
2023-06-29T00:07:42.892Z,40.72
2023-06-29T00:10:12.260Z,40.81
2023-06-29T00:12:41.677Z,40.95
2023-06-29T00:15:15.416Z,41.07
2023-06-29T00:17:45.606Z,40.98
2023-06-29T00:20:14.227Z,41.11
2023-06-29T00:22:49.165Z,41.37
2023-06-29T00:25:18.956Z,41.39
2023-06-29T00:27:47.318Z,41.46
2023-06-29T00:30:17.294Z,41.31
2023-06-29T00:32:45.726Z,41.35
2023-06-29T00:35:15.418Z,41.36
2023-06-29T00:37:44.309Z,41.32
2023-06-29T00:40:14.305Z,41.45
2023-06-29T00:42:43.870Z,41.63
2023-06-29T00:45:12.879Z,41.62
2023-06-29T00:47:42.725Z,41.68
2023-06-29T00:50:12.226Z,41.75
2023-06-29T00:52:40.785Z,41.90
2023-06-29T00:55:10.373Z,41.79
2023-06-29T00:57:39.424Z,41.95
2023-06-29T01:00:12.046Z,42.08
2023-06-29T01:02:42.723Z,42.20
2023-06-29T01:05:12.736Z,42.31
2023-06-29T01:07:48.575Z,42.15
2023-06-29T01:10:20.949Z,42.30
2023-06-29T01:12:51.130Z,42.27
2023-06-29T01:15:19.596Z,42.45
2023-06-29T01:17:52.550Z,42.41
2023-06-29T01:20:22.146Z,42.54
2023-06-29T01:23:00.248Z,42.42
2023-06-29T01:25:31.035Z,42.72
2023-06-29T01:27:59.774Z,42.70
2023-06-29T01:30:29.693Z,42.81
2023-06-29T01:32:58.062Z,42.90
2023-06-29T01:35:26.749Z,42.80
2023-06-29T01:38:00.934Z,42.90
2023-06-29T01:40:32.244Z,42.95
2023-06-29T01:43:01.112Z,42.92
2023-06-29T01:45:31.099Z,42.95
2023-06-29T01:48:00.400Z,43.00
2023-06-29T01:50:29.781Z,43.21
2023-06-29T01:52:58.103Z,43.24
2023-06-29T01:55:26.873Z,43.20
2023-06-29T01:57:56.618Z,43.09
2023-06-29T02:00:25.520Z,43.46
2023-06-29T02:02:53.961Z,43.66
2023-06-29T02:05:22.712Z,43.51
2023-06-29T02:07:51.220Z,43.56
2023-06-29T02:10:19.800Z,43.51
2023-06-29T02:12:48.080Z,43.43
2023-06-29T02:15:17.870Z,43.50
2023-06-29T02:17:46.307Z,43.57
2023-06-29T02:20:14.697Z,43.66
2023-06-29T02:22:43.085Z,43.77
2023-06-29T02:25:16.487Z,44.01
2023-06-29T02:27:44.922Z,44.06
2023-06-29T02:30:14.490Z,44.29
2023-06-29T02:32:44.260Z,44.40
2023-06-29T02:35:12.573Z,44.34
2023-06-29T02:37:40.896Z,44.42
2023-06-29T02:40:10.735Z,44.48
2023-06-29T02:42:39.064Z,44.43
2023-06-29T02:45:10.186Z,44.60
2023-06-29T02:47:40.687Z,44.63
2023-06-29T02:50:11.638Z,44.72
2023-06-29T02:52:39.926Z,44.79
2023-06-29T02:55:09.312Z,44.82
2023-06-29T02:57:37.641Z,44.70
2023-06-29T03:00:09.217Z,44.87
2023-06-29T03:02:37.676Z,44.79
2023-06-29T03:05:06.995Z,44.78
2023-06-29T03:07:36.805Z,44.99
2023-06-29T03:10:06.078Z,44.90
2023-06-29T03:12:34.370Z,45.01
2023-06-29T03:15:02.797Z,45.19
2023-06-29T03:17:31.199Z,45.17
2023-06-29T03:19:59.517Z,45.29
2023-06-29T03:22:27.954Z,45.44
2023-06-29T03:24:57.656Z,45.41
2023-06-29T03:27:26.008Z,45.57
2023-06-29T03:29:54.902Z,45.57
2023-06-29T03:32:23.319Z,45.65
2023-06-29T03:34:51.630Z,45.68
2023-06-29T03:37:20.188Z,45.70
2023-06-29T03:39:48.949Z,45.84
2023-06-29T03:42:19.690Z,45.78
2023-06-29T03:44:47.983Z,46.05
2023-06-29T03:47:16.348Z,46.04
2023-06-29T03:49:44.652Z,46.18
2023-06-29T03:52:13.111Z,46.23
2023-06-29T03:54:41.522Z,46.27
2023-06-29T03:57:10.102Z,46.33
2023-06-29T03:59:40.206Z,46.38
2023-06-29T04:02:10.497Z,46.45
2023-06-29T04:04:43.611Z,46.45
2023-06-29T04:07:11.975Z,46.64
2023-06-29T04:09:40.321Z,46.72
2023-06-29T04:12:10.347Z,46.87
2023-06-29T04:14:40.065Z,46.94
2023-06-29T04:17:08.451Z,46.85
2023-06-29T04:19:36.787Z,47.05
2023-06-29T04:22:08.543Z,47.06
2023-06-29T04:24:39.510Z,47.10
2023-06-29T04:27:08.034Z,47.17
2023-06-29T04:29:36.394Z,47.32
2023-06-29T04:32:06.582Z,47.51
2023-06-29T04:34:34.966Z,47.56
2023-06-29T04:37:03.949Z,47.62
2023-06-29T04:39:32.532Z,47.81
2023-06-29T04:42:03.479Z,47.69
2023-06-29T04:44:33.455Z,47.95
2023-06-29T04:47:02.827Z,48.07
2023-06-29T04:49:37.957Z,48.09
2023-06-29T04:52:11.305Z,48.08
2023-06-29T04:54:42.598Z,48.42
2023-06-29T04:57:13.339Z,48.08
2023-06-29T04:59:41.701Z,48.28
2023-06-29T05:02:09.997Z,48.23
2023-06-29T05:04:39.903Z,48.39
2023-06-29T05:07:08.368Z,48.53
2023-06-29T05:09:37.246Z,48.85
2023-06-29T05:12:06.688Z,48.83
2023-06-29T05:14:34.986Z,48.54
2023-06-29T05:17:03.552Z,48.72
2023-06-29T05:19:33.160Z,48.77
2023-06-29T05:22:02.869Z,48.76
2023-06-29T05:24:31.226Z,49.04
2023-06-29T05:26:59.619Z,49.18
2023-06-29T05:29:28.017Z,49.35
2023-06-29T05:31:56.490Z,49.26
2023-06-29T05:34:24.991Z,49.26
2023-06-29T05:36:54.207Z,49.34
2023-06-29T05:39:23.897Z,49.23
2023-06-29T05:41:52.266Z,49.25
2023-06-29T05:44:20.623Z,49.05
2023-06-29T05:46:48.955Z,48.85
2023-06-29T05:49:17.361Z,48.83
2023-06-29T05:51:45.690Z,48.67
2023-06-29T05:54:14.019Z,48.66
2023-06-29T05:56:43.714Z,49.03
2023-06-29T05:59:12.038Z,48.96
2023-06-29T06:01:40.528Z,48.34
2023-06-29T06:04:08.977Z,48.29
2023-06-29T06:06:40.376Z,48.35
2023-06-29T06:09:08.770Z,47.97
2023-06-29T06:14:06.620Z,47.90
2023-06-29T06:16:35.080Z,47.70
2023-06-29T06:19:04.014Z,47.14
2023-06-29T06:21:32.339Z,47.37
2023-06-29T06:24:00.686Z,46.95
2023-06-29T06:26:29.620Z,47.17
2023-06-29T06:28:57.978Z,46.96
2023-06-29T06:31:34.229Z,47.44
2023-06-29T06:34:03.886Z,47.49
2023-06-29T06:36:33.600Z,47.35
2023-06-29T06:39:04.913Z,46.81
2023-06-29T06:41:33.239Z,47.04
2023-06-29T06:44:01.669Z,46.37
2023-06-29T06:46:31.398Z,45.79
2023-06-29T06:48:59.764Z,45.23
2023-06-29T06:51:29.120Z,44.86
2023-06-29T06:53:57.482Z,44.66
2023-06-29T06:56:25.779Z,45.02
2023-06-29T06:58:54.165Z,44.71
2023-06-29T07:01:25.903Z,44.37
2023-06-29T07:03:55.716Z,44.07
2023-06-29T07:06:24.046Z,43.95
2023-06-29T07:08:52.416Z,43.88
2023-06-29T07:11:20.786Z,43.79
2023-06-29T07:13:49.102Z,43.49
2023-06-29T07:16:17.448Z,43.16
2023-06-29T07:21:36.962Z,43.08
2023-06-29T07:24:08.069Z,42.41
2023-06-29T07:26:36.976Z,42.04
2023-06-29T07:29:06.487Z,41.64
2023-06-29T07:31:35.360Z,41.83
2023-06-29T07:34:05.106Z,41.23
2023-06-29T07:36:35.433Z,41.51
2023-06-29T07:39:04.047Z,41.03
2023-06-29T07:41:32.846Z,40.64
2023-06-29T07:44:02.378Z,40.51
2023-06-29T07:46:32.989Z,40.00
2023-06-29T07:49:01.494Z,39.96
2023-06-29T07:51:33.633Z,39.62
2023-06-29T07:54:03.495Z,39.68
2023-06-29T07:59:03.418Z,38.97
2023-06-29T08:01:36.440Z,39.13
2023-06-29T08:04:05.484Z,37.85
2023-06-29T08:09:14.634Z,37.84
2023-06-29T08:11:43.028Z,37.67
2023-06-29T08:14:11.339Z,36.22
2023-06-29T08:16:39.806Z,36.04
2023-06-29T08:19:08.212Z,35.81
2023-06-29T08:21:37.923Z,35.38
2023-06-29T08:24:07.520Z,35.26
2023-06-29T08:26:35.983Z,34.28
2023-06-29T08:29:04.370Z,35.26
2023-06-29T08:31:32.764Z,34.92
2023-06-29T08:34:01.222Z,34.20
2023-06-29T08:36:33.223Z,33.58
2023-06-29T08:39:04.077Z,32.36
2023-06-29T08:41:32.474Z,31.38
2023-06-29T08:44:02.917Z,30.60
2023-06-29T08:46:32.694Z,30.20
2023-06-29T08:49:02.693Z,29.52
2023-06-29T08:51:33.895Z,29.18
2023-06-29T08:54:04.678Z,30.13
2023-06-29T08:56:33.377Z,29.80
2023-06-29T08:59:01.888Z,29.08
2023-06-29T09:01:30.884Z,28.39
2023-06-29T09:03:59.654Z,27.87
2023-06-29T09:06:30.059Z,27.99
2023-06-29T09:08:58.792Z,28.12
2023-06-29T09:11:28.573Z,26.30
2023-06-29T09:13:56.998Z,28.04
2023-06-29T09:16:30.963Z,28.28
2023-06-29T09:19:00.439Z,27.79
2023-06-29T09:21:29.874Z,26.12
2023-06-29T09:24:00.195Z,25.54
2023-06-29T09:26:31.071Z,25.65
2023-06-29T09:29:01.209Z,25.29
2023-06-29T09:31:34.169Z,25.23
2023-06-29T09:34:19.354Z,26.08
2023-06-29T09:36:48.446Z,26.17
2023-06-29T09:39:17.211Z,26.11
2023-06-29T09:41:52.018Z,24.69
2023-06-29T09:44:21.826Z,25.08
2023-06-29T09:49:22.301Z,24.78
2023-06-29T09:52:03.797Z,24.72
2023-06-29T09:54:36.624Z,25.94
2023-06-29T09:57:07.354Z,24.49
2023-06-29T09:59:36.961Z,24.98
2023-06-29T10:02:08.524Z,25.26
2023-06-29T10:04:37.054Z,25.21
2023-06-29T10:07:09.744Z,25.46
2023-06-29T10:09:40.123Z,24.34
2023-06-29T10:12:12.983Z,24.45
2023-06-29T10:14:44.363Z,24.47
2023-06-29T10:17:20.720Z,24.58
2023-06-29T10:19:50.563Z,23.08
2023-06-29T10:22:20.296Z,22.68
2023-06-29T10:24:53.673Z,23.08
2023-06-29T10:27:26.498Z,23.05
2023-06-29T10:29:55.262Z,22.27
2023-06-29T10:32:34.270Z,23.21
2023-06-29T10:35:05.957Z,23.38
2023-06-29T10:37:36.029Z,22.97
2023-06-29T10:40:11.165Z,22.07
2023-06-29T10:42:55.387Z,22.52
2023-06-29T10:45:37.048Z,21.93
2023-06-29T10:48:08.378Z,22.07
2023-06-29T10:50:45.803Z,22.30
2023-06-29T10:53:16.166Z,22.44
2023-06-29T10:55:47.581Z,21.80
2023-06-29T10:58:23.508Z,21.38
2023-06-29T11:00:54.156Z,20.64
2023-06-29T11:03:24.698Z,20.38
2023-06-29T11:05:54.791Z,20.56
2023-06-29T11:08:24.102Z,21.08
2023-06-29T11:10:53.371Z,20.77
2023-06-29T11:13:23.969Z,20.54
2023-06-29T11:15:57.485Z,19.75
2023-06-29T11:18:26.091Z,20.23
2023-06-29T11:20:54.412Z,21.21
2023-06-29T11:23:22.744Z,20.49
2023-06-29T11:25:51.046Z,20.69
2023-06-29T11:28:19.421Z,20.69
2023-06-29T11:30:52.720Z,20.77
2023-06-29T11:33:33.631Z,20.35
2023-06-29T11:36:03.429Z,21.16
2023-06-29T11:38:32.129Z,20.96
2023-06-29T11:41:07.092Z,20.88
2023-06-29T11:43:35.683Z,21.47
2023-06-29T11:46:05.615Z,20.72
2023-06-29T11:48:33.975Z,19.52
2023-06-29T11:51:03.110Z,20.01
2023-06-29T11:53:32.143Z,18.89
2023-06-29T11:56:00.475Z,19.19
2023-06-29T11:58:35.944Z,18.94
2023-06-29T12:01:05.757Z,19.71
2023-06-29T12:03:34.876Z,20.45
2023-06-29T12:06:03.418Z,19.99
2023-06-29T12:08:40.347Z,20.37
2023-06-29T12:11:16.859Z,19.60
2023-06-29T12:13:48.933Z,19.22
2023-06-29T12:18:52.071Z,18.77
2023-06-29T12:21:22.038Z,18.72
2023-06-29T12:23:51.522Z,17.85
2023-06-29T12:26:20.428Z,18.42
2023-06-29T12:28:48.746Z,19.86
2023-06-29T12:31:19.822Z,18.92
2023-06-29T12:33:49.540Z,18.45
2023-06-29T12:36:17.848Z,18.35
2023-06-29T12:38:46.195Z,18.15
2023-06-29T12:41:14.524Z,18.01
2023-06-29T12:43:43.076Z,18.89
2023-06-29T12:46:13.367Z,18.32
2023-06-29T12:48:41.820Z,18.33
2023-06-29T12:51:11.472Z,18.69
2023-06-29T12:53:42.708Z,19.39
2023-06-29T12:56:11.074Z,20.40
2023-06-29T12:58:39.421Z,19.62
2023-06-29T13:01:07.833Z,19.67
2023-06-29T13:03:36.410Z,19.22
2023-06-29T13:06:05.132Z,17.38
2023-06-29T13:08:34.803Z,18.77
2023-06-29T13:11:03.398Z,19.74
2023-06-29T13:13:32.169Z,19.03
2023-06-29T13:16:00.496Z,19.83
2023-06-29T13:18:28.958Z,19.63
2023-06-29T13:20:57.442Z,19.67
2023-06-29T13:23:25.837Z,19.07
2023-06-29T13:25:55.551Z,19.26
2023-06-29T13:28:23.917Z,19.48
2023-06-29T13:30:52.294Z,18.85
2023-06-29T13:33:21.989Z,18.29
2023-06-29T13:35:53.308Z,18.49
2023-06-29T13:38:21.704Z,19.22
2023-06-29T13:40:50.151Z,18.40
2023-06-29T13:43:21.042Z,18.05
2023-06-29T13:45:50.411Z,18.04
2023-06-29T13:48:20.698Z,19.07
2023-06-29T13:50:49.453Z,19.39
2023-06-29T13:53:17.852Z,19.33
2023-06-29T13:55:47.351Z,19.39
2023-06-29T13:58:16.061Z,20.10
2023-06-29T14:00:45.828Z,18.89
2023-06-29T14:03:14.239Z,19.27
2023-06-29T14:05:42.976Z,18.55
2023-06-29T14:08:12.487Z,19.08
2023-06-29T14:10:44.229Z,18.56
2023-06-29T14:13:12.501Z,19.30
2023-06-29T14:15:40.844Z,18.59
2023-06-29T14:18:10.608Z,19.41
2023-06-29T14:20:38.936Z,18.46
2023-06-29T14:23:08.320Z,18.71
2023-06-29T14:25:36.641Z,18.32
2023-06-29T14:28:05.297Z,18.50
2023-06-29T14:30:33.621Z,18.95
2023-06-29T14:33:04.126Z,18.85
2023-06-29T14:35:35.764Z,18.75
2023-06-29T14:38:13.185Z,18.82
2023-06-29T14:40:43.243Z,18.44
2023-06-29T14:43:12.020Z,18.32
2023-06-29T14:45:40.767Z,18.45
2023-06-29T14:48:09.404Z,19.00
2023-06-29T14:50:39.187Z,19.13
2023-06-29T14:53:07.676Z,19.06
2023-06-29T14:55:36.116Z,18.40
2023-06-29T14:58:05.701Z,18.96
2023-06-29T15:00:36.443Z,18.20
2023-06-29T15:03:04.938Z,18.32
2023-06-29T15:05:33.529Z,18.33
2023-06-29T15:08:03.200Z,18.33
2023-06-29T15:10:34.235Z,18.30
2023-06-29T15:13:02.536Z,18.11
2023-06-29T15:15:31.027Z,17.57
2023-06-29T15:17:59.447Z,18.19
2023-06-29T15:20:27.787Z,18.13
2023-06-29T15:22:56.082Z,18.96
2023-06-29T15:25:25.800Z,18.62
2023-06-29T15:27:54.125Z,18.44
2023-06-29T15:30:22.516Z,18.50
2023-06-29T15:32:50.878Z,17.94
2023-06-29T15:35:19.272Z,18.25
2023-06-29T15:37:47.711Z,18.00
2023-06-29T15:40:17.037Z,18.55
2023-06-29T15:42:47.066Z,18.09
2023-06-29T15:45:15.396Z,18.60
2023-06-29T15:47:43.896Z,18.57
2023-06-29T15:50:12.486Z,18.19
2023-06-29T15:52:43.084Z,18.95
2023-06-29T15:55:23.102Z,18.78
2023-06-29T15:57:52.793Z,18.49
2023-06-29T16:00:21.852Z,18.91
2023-06-29T16:02:50.270Z,18.48
2023-06-29T16:05:18.966Z,18.29
2023-06-29T16:07:49.927Z,19.05
2023-06-29T16:10:18.229Z,18.73
2023-06-29T16:12:46.592Z,18.80
2023-06-29T16:15:22.305Z,18.74
2023-06-29T16:17:50.809Z,19.05
2023-06-29T16:20:19.233Z,18.47
2023-06-29T16:22:47.632Z,18.60
2023-06-29T16:25:15.985Z,18.70
2023-06-29T16:27:44.340Z,19.15
2023-06-29T16:30:13.532Z,19.04
2023-06-29T16:32:43.268Z,18.79
2023-06-29T16:35:20.359Z,18.83
2023-06-29T16:37:48.783Z,19.33
2023-06-29T16:40:17.104Z,19.28
2023-06-29T16:42:45.450Z,18.94
2023-06-29T16:45:14.831Z,18.94
2023-06-29T16:47:44.597Z,19.15
2023-06-29T16:50:13.114Z,18.82
2023-06-29T16:52:41.428Z,19.50
2023-06-29T16:55:13.404Z,19.13
2023-06-29T16:57:41.976Z,19.25
2023-06-29T17:00:11.692Z,19.18
2023-06-29T17:02:40.131Z,19.70
2023-06-29T17:05:16.307Z,19.39
2023-06-29T17:07:44.711Z,19.91
2023-06-29T17:10:13.071Z,20.13
2023-06-29T17:12:41.507Z,19.90
2023-06-29T17:15:11.981Z,19.99
2023-06-29T17:17:40.417Z,19.63
2023-06-29T17:20:11.723Z,20.14
2023-06-29T17:22:40.207Z,20.38
2023-06-29T17:25:15.871Z,19.83
2023-06-29T17:27:44.198Z,19.70
2023-06-29T17:30:14.450Z,19.57
2023-06-29T17:32:42.762Z,19.72
2023-06-29T17:35:15.088Z,20.03
2023-06-29T17:37:43.508Z,19.57
2023-06-29T17:40:12.297Z,19.72
2023-06-29T17:42:40.618Z,20.27
2023-06-29T17:45:19.950Z,20.12
2023-06-29T17:47:48.360Z,19.79
2023-06-29T17:50:18.132Z,20.06
2023-06-29T17:52:48.792Z,20.03
2023-06-29T17:55:20.238Z,20.30
2023-06-29T17:57:48.543Z,20.71
2023-06-29T18:00:18.596Z,20.33
2023-06-29T18:02:47.125Z,20.21
2023-06-29T18:05:28.334Z,20.34
2023-06-29T18:07:56.970Z,20.77
2023-06-29T18:10:25.302Z,20.78
2023-06-29T18:12:53.741Z,20.59
2023-06-29T18:15:22.135Z,20.83
2023-06-29T18:17:50.557Z,21.47
2023-06-29T18:20:20.294Z,21.85
2023-06-29T18:22:48.610Z,21.88
2023-06-29T18:25:17.298Z,21.46
2023-06-29T18:27:45.695Z,21.51
2023-06-29T18:30:15.319Z,21.56
2023-06-29T18:32:43.704Z,21.93
2023-06-29T18:35:15.008Z,22.10
2023-06-29T18:37:46.359Z,22.24
2023-06-29T18:40:15.665Z,22.29
2023-06-29T18:42:44.142Z,22.24
2023-06-29T18:45:15.484Z,22.38
2023-06-29T18:47:43.898Z,22.51
2023-06-29T18:50:13.040Z,23.09
2023-06-29T18:52:41.442Z,23.26
2023-06-29T18:55:11.607Z,23.02
2023-06-29T18:57:40.060Z,23.22
2023-06-29T19:00:10.059Z,23.07
2023-06-29T19:02:43.157Z,23.05
2023-06-29T19:05:17.639Z,23.03
2023-06-29T19:07:46.054Z,23.24
2023-06-29T19:10:15.868Z,24.07
2023-06-29T19:12:44.226Z,24.21
2023-06-29T19:15:15.737Z,24.62
2023-06-29T19:17:44.206Z,24.50
2023-06-29T19:20:13.732Z,25.14
2023-06-29T19:22:42.044Z,24.96
2023-06-29T19:25:12.537Z,25.14
2023-06-29T19:27:42.874Z,24.98
2023-06-29T19:30:17.087Z,25.37
2023-06-29T19:32:45.455Z,25.57
2023-06-29T19:35:13.835Z,25.72
2023-06-29T19:37:43.256Z,25.66
2023-06-29T19:40:12.733Z,26.20
2023-06-29T19:42:42.881Z,26.19
2023-06-29T19:45:13.017Z,26.52
2023-06-29T19:47:41.375Z,26.60
2023-06-29T19:50:13.494Z,27.19
2023-06-29T19:52:41.980Z,27.12
2023-06-29T19:55:11.198Z,27.66
2023-06-29T19:57:39.835Z,27.99
2023-06-29T20:00:18.737Z,27.84
2023-06-29T20:02:47.165Z,27.69
2023-06-29T20:05:15.889Z,28.37
2023-06-29T20:07:49.001Z,28.49
2023-06-29T20:10:17.484Z,28.59
2023-06-29T20:12:46.446Z,28.68
2023-06-29T20:15:19.131Z,28.92
2023-06-29T20:17:47.526Z,29.05
2023-06-29T20:20:16.027Z,29.30
2023-06-29T20:22:44.414Z,29.09
2023-06-29T20:25:12.745Z,29.39
2023-06-29T20:27:41.096Z,29.54
2023-06-29T20:30:13.092Z,29.82
2023-06-29T20:32:42.898Z,30.01
2023-06-29T20:35:11.445Z,30.12
2023-06-29T20:37:39.802Z,30.09
2023-06-29T20:40:15.557Z,29.80
2023-06-29T20:42:43.893Z,30.09
2023-06-29T20:45:13.585Z,29.98
2023-06-29T20:47:43.439Z,29.83
2023-06-29T20:50:12.559Z,30.47
2023-06-29T20:52:41.829Z,30.41
2023-06-29T20:55:11.039Z,30.39
2023-06-29T20:57:39.428Z,29.85
2023-06-29T21:00:12.785Z,30.34
2023-06-29T21:02:43.053Z,30.27
2023-06-29T21:05:11.659Z,30.03
2023-06-29T21:07:40.044Z,30.45
2023-06-29T21:10:09.890Z,30.35
2023-06-29T21:12:39.245Z,30.51
2023-06-29T21:15:09.386Z,30.83
2023-06-29T21:17:38.339Z,31.19
2023-06-29T21:20:10.298Z,31.03
2023-06-29T21:22:40.381Z,31.33
2023-06-29T21:25:11.053Z,31.21
2023-06-29T21:27:40.531Z,31.10
2023-06-29T21:30:13.855Z,30.68
2023-06-29T21:32:42.750Z,30.49
2023-06-29T21:35:14.350Z,30.80
2023-06-29T21:37:43.260Z,30.71
2023-06-29T21:40:13.552Z,30.94
2023-06-29T21:42:41.869Z,31.09
2023-06-29T21:45:11.201Z,31.38
2023-06-29T21:47:39.547Z,31.81
2023-06-29T21:50:09.881Z,31.88
2023-06-29T21:52:39.577Z,31.89
2023-06-29T21:55:09.123Z,31.72
2023-06-29T21:57:38.204Z,31.51
2023-06-29T22:00:10.737Z,31.39
2023-06-29T22:02:39.112Z,31.75
2023-06-29T22:05:14.071Z,31.65
2023-06-29T22:07:44.015Z,31.39
2023-06-29T22:10:12.882Z,31.50
2023-06-29T22:12:43.482Z,31.77
2023-06-29T22:15:20.046Z,31.99
2023-06-29T22:17:51.891Z,31.85
2023-06-29T22:20:23.872Z,31.68
2023-06-29T22:22:53.827Z,32.33
2023-06-29T22:25:25.598Z,32.28
2023-06-29T22:27:55.381Z,32.18
2023-06-29T22:30:23.723Z,32.61
2023-06-29T22:32:53.285Z,32.48
2023-06-29T22:35:24.987Z,32.25
2023-06-29T22:37:54.754Z,32.47
2023-06-29T22:40:23.175Z,32.74
2023-06-29T22:42:51.536Z,32.84
2023-06-29T22:45:20.064Z,33.13
2023-06-29T22:47:48.455Z,33.61
2023-06-29T22:50:17.111Z,33.57
2023-06-29T22:52:46.234Z,33.77
2023-06-29T22:55:15.965Z,33.75
2023-06-29T22:57:44.289Z,33.84
2023-06-29T23:00:14.149Z,34.15
2023-06-29T23:02:42.577Z,34.09
2023-06-29T23:05:13.147Z,34.47
2023-06-29T23:07:44.992Z,34.88
2023-06-29T23:10:16.356Z,35.12
2023-06-29T23:12:46.653Z,35.22
2023-06-29T23:15:21.620Z,34.68
2023-06-29T23:17:49.965Z,34.41
2023-06-29T23:20:18.346Z,34.55
2023-06-29T23:22:46.825Z,34.76
2023-06-29T23:25:16.581Z,34.76
2023-06-29T23:27:45.252Z,34.95
2023-06-29T23:30:16.763Z,35.09
2023-06-29T23:32:50.932Z,35.04
2023-06-29T23:35:21.641Z,35.10
2023-06-29T23:37:50.199Z,34.74
2023-06-29T23:40:20.194Z,34.85
2023-06-29T23:42:48.654Z,35.03
2023-06-29T23:45:17.580Z,35.11
2023-06-29T23:47:46.306Z,35.75
2023-06-29T23:50:14.902Z,35.84
2023-06-29T23:52:43.730Z,35.83
2023-06-29T23:55:13.523Z,35.54
2023-06-29T23:57:43.430Z,35.61
